Time;durP1;ratioP1;P1;durP2;ratioP2;P2;SDS_P1;SDS_P2;PMS_P1;PMS_P2;Temp;Humidity;BMP_temperature;BMP_pressure;BME280_temperature;BME280_humidity;BME280_pressure;Samples;Min_cycle;Max_cycle;Signal;HPM_P1;HPM_P2
2023/06/27 00:02:00;;;;;;;1999.90;999.90;;;17.80;99.90;;;;;;4989588;28;20434;-73
2023/06/27 00:04:28;;;;;;;1999.90;999.90;;;17.80;99.90;;;;;;4989752;28;20434;-73
2023/06/27 00:06:55;;;;;;;1999.90;999.90;;;17.80;99.90;;;;;;4989279;28;20852;-73
2023/06/27 00:09:22;;;;;;;1999.90;999.90;;;17.70;99.90;;;;;;4990328;28;20484;-72
2023/06/27 00:11:49;;;;;;;1999.90;999.90;;;17.70;99.90;;;;;;4989868;28;20441;-74
2023/06/27 00:14:18;;;;;;;1999.90;999.90;;;17.90;99.90;;;;;;4990149;28;20442;-73
2023/06/27 00:16:47;;;;;;;1999.90;999.90;;;17.90;99.90;;;;;;4984845;28;20441;-74
2023/06/27 00:19:13;;;;;;;1999.90;999.90;;;17.80;99.90;;;;;;4993068;28;20470;-74
2023/06/27 00:21:40;;;;;;;1999.90;999.90;;;17.80;99.90;;;;;;4993564;28;20433;-73
2023/06/27 00:24:07;;;;;;;1999.90;999.90;;;17.80;99.90;;;;;;4988257;28;20496;-73
2023/06/27 00:26:35;;;;;;;1999.90;999.90;;;17.90;99.90;;;;;;4987542;28;20500;-73
2023/06/27 00:29:01;;;;;;;1999.90;999.90;;;17.80;99.90;;;;;;4989184;28;20485;-72
2023/06/27 00:31:28;;;;;;;1999.90;999.90;;;17.80;99.90;;;;;;4988218;28;20444;-74
2023/06/27 00:33:56;;;;;;;1999.90;999.90;;;17.70;99.90;;;;;;4989163;28;20454;-73
2023/06/27 00:36:23;;;;;;;1999.90;999.90;;;17.70;99.90;;;;;;4989040;28;20430;-72
2023/06/27 00:38:49;;;;;;;1999.90;999.90;;;17.60;99.90;;;;;;4992483;28;20437;-72
2023/06/27 00:41:16;;;;;;;1999.90;999.90;;;17.50;99.90;;;;;;4989007;28;20438;-73
2023/06/27 00:43:43;;;;;;;1999.90;999.90;;;17.50;99.90;;;;;;4994123;28;20829;-73
2023/06/27 00:46:11;;;;;;;1999.90;999.90;;;17.50;99.90;;;;;;4993704;28;20493;-73
2023/06/27 00:48:38;;;;;;;1999.90;999.90;;;17.40;99.90;;;;;;5001623;28;20978;-73
2023/06/27 00:51:08;;;;;;;1999.90;999.90;;;17.40;99.90;;;;;;4991743;28;20948;-74
2023/06/27 00:53:35;;;;;;;1999.90;999.90;;;17.40;99.90;;;;;;4992667;28;20952;-73
2023/06/27 00:56:03;;;;;;;1999.90;999.90;;;17.20;99.90;;;;;;4993472;28;20446;-73
2023/06/27 00:58:30;;;;;;;1999.90;999.90;;;17.20;99.90;;;;;;4992759;28;20438;-74
2023/06/27 01:01:00;;;;;;;1999.90;999.90;;;17.10;99.90;;;;;;4992903;28;20475;-73
2023/06/27 01:03:32;;;;;;;1999.90;999.90;;;17.00;99.90;;;;;;4991886;28;20438;-73
2023/06/27 01:06:02;;;;;;;1999.90;999.90;;;17.10;99.90;;;;;;4993272;28;20430;-73
2023/06/27 01:08:35;;;;;;;1999.90;999.90;;;17.00;99.90;;;;;;4993084;28;20438;-73
2023/06/27 01:11:08;;;;;;;1999.90;999.90;;;17.00;99.90;;;;;;4993063;28;20434;-71
2023/06/27 01:13:40;;;;;;;1999.90;999.90;;;17.10;99.90;;;;;;4992541;28;20441;-73
2023/06/27 01:16:07;;;;;;;1999.90;999.90;;;16.90;99.90;;;;;;4993724;28;20590;-73
2023/06/27 01:18:38;;;;;;;1999.90;999.90;;;16.90;99.90;;;;;;4992697;28;20438;-72
2023/06/27 01:21:08;;;;;;;1999.90;999.90;;;16.70;99.90;;;;;;4992488;28;20584;-74
2023/06/27 01:23:48;;;;;;;1999.90;999.90;;;16.70;99.90;;;;;;4992850;28;20529;-73
2023/06/27 01:26:16;;;;;;;1999.90;999.90;;;16.70;99.90;;;;;;4992839;28;20537;-74
2023/06/27 01:28:43;;;;;;;1999.90;999.90;;;16.70;99.90;;;;;;4992961;28;20918;-71
2023/06/27 01:31:15;;;;;;;1999.90;999.90;;;16.70;99.90;;;;;;4991628;28;20442;-72
2023/06/27 01:33:45;;;;;;;1999.90;999.90;;;16.60;99.90;;;;;;4992106;28;20441;-74
2023/06/27 01:36:17;;;;;;;1999.90;999.90;;;16.50;99.90;;;;;;4993739;28;20501;-73
2023/06/27 01:38:52;;;;;;;1999.90;999.90;;;16.40;99.90;;;;;;4996462;28;20441;-74
2023/06/27 01:41:21;;;;;;;1999.90;999.90;;;16.30;99.90;;;;;;4996200;28;20442;-73
2023/06/27 01:43:49;;;;;;;1999.90;999.90;;;16.20;99.90;;;;;;4995896;28;20438;-73
2023/06/27 01:46:16;;;;;;;1999.90;999.90;;;16.10;99.90;;;;;;4996676;28;20442;-72
2023/06/27 01:48:45;;;;;;;1999.90;999.90;;;16.10;99.90;;;;;;4993501;28;20529;-73
2023/06/27 01:51:14;;;;;;;1999.90;999.90;;;16.00;99.90;;;;;;4990403;28;20434;-73
2023/06/27 01:53:40;;;;;;;1999.90;999.90;;;16.00;99.90;;;;;;4992319;28;20449;-72
2023/06/27 01:56:09;;;;;;;1999.90;999.90;;;16.00;99.90;;;;;;4993001;28;20442;-72
2023/06/27 01:58:35;;;;;;;1999.90;999.90;;;16.00;99.90;;;;;;4998500;28;20440;-73
2023/06/27 02:01:03;;;;;;;1999.90;999.90;;;16.10;99.90;;;;;;4994028;28;20434;-71
2023/06/27 02:03:30;;;;;;;1999.90;999.90;;;16.10;99.90;;;;;;4991939;28;20959;-72
2023/06/27 02:05:56;;;;;;;1999.90;999.90;;;16.10;99.90;;;;;;4991873;28;20543;-71
2023/06/27 02:08:23;;;;;;;1999.90;999.90;;;16.10;99.90;;;;;;4992242;28;20940;-72
2023/06/27 02:10:50;;;;;;;1999.90;999.90;;;16.20;99.90;;;;;;4991954;28;20439;-70
2023/06/27 02:13:18;;;;;;;1999.90;999.90;;;16.20;99.90;;;;;;4987000;28;20434;-72
2023/06/27 02:15:44;;;;;;;1999.90;999.90;;;16.10;99.90;;;;;;4991947;28;20445;-73
2023/06/27 02:18:11;;;;;;;1999.90;999.90;;;16.00;99.90;;;;;;5001059;28;20465;-72
2023/06/27 02:20:37;;;;;;;1999.90;999.90;;;16.00;99.90;;;;;;4990414;28;20488;-72
2023/06/27 02:23:04;;;;;;;1999.90;999.90;;;15.90;99.90;;;;;;4991032;28;20489;-73
2023/06/27 02:25:31;;;;;;;1999.90;999.90;;;16.10;99.90;;;;;;4991876;28;20451;-74
2023/06/27 02:27:57;;;;;;;1999.90;999.90;;;15.90;99.90;;;;;;4993848;28;20793;-72
2023/06/27 02:30:25;;;;;;;1999.90;999.90;;;15.80;99.90;;;;;;4991139;28;20434;-74
2023/06/27 02:32:52;;;;;;;1999.90;999.90;;;16.00;99.90;;;;;;4982882;28;20445;-73
2023/06/27 02:35:19;;;;;;;1999.90;999.90;;;15.90;99.90;;;;;;4990812;28;20446;-73
2023/06/27 02:37:45;;;;;;;1999.90;999.90;;;15.90;99.90;;;;;;4991028;28;20450;-74
2023/06/27 02:40:13;;;;;;;1999.90;999.90;;;16.00;99.90;;;;;;4990809;28;20434;-73
2023/06/27 02:42:39;;;;;;;1999.90;999.90;;;15.90;99.90;;;;;;4990009;28;20496;-72
2023/06/27 02:45:07;;;;;;;1999.90;999.90;;;15.90;99.90;;;;;;4991269;28;20492;-74
2023/06/27 02:47:35;;;;;;;1999.90;999.90;;;15.90;99.90;;;;;;4991061;28;20442;-71
2023/06/27 02:50:02;;;;;;;1999.90;999.90;;;15.70;99.90;;;;;;4989780;28;20983;-70
2023/06/27 02:52:29;;;;;;;1999.90;999.90;;;15.70;99.90;;;;;;4989571;28;20526;-73
2023/06/27 02:54:55;;;;;;;1999.90;999.90;;;15.80;99.90;;;;;;4991357;28;20435;-73
2023/06/27 02:57:22;;;;;;;1999.90;999.90;;;15.80;99.90;;;;;;4990545;28;20442;-74
2023/06/27 02:59:49;;;;;;;1999.90;999.90;;;15.80;99.90;;;;;;4989872;28;20786;-74
2023/06/27 03:02:15;;;;;;;1999.90;999.90;;;15.80;99.90;;;;;;4989510;28;20501;-72
2023/06/27 03:04:44;;;;;;;1999.90;999.90;;;15.90;99.90;;;;;;4986030;28;20800;-73
2023/06/27 03:07:11;;;;;;;1999.90;999.90;;;15.80;99.90;;;;;;4991040;28;20438;-73
2023/06/27 03:09:37;;;;;;;1999.90;999.90;;;15.80;99.90;;;;;;4990301;28;20438;-73
2023/06/27 03:12:05;;;;;;;1999.90;999.90;;;15.70;99.90;;;;;;4990078;28;20470;-73
2023/06/27 03:14:31;;;;;;;1999.90;999.90;;;15.70;99.90;;;;;;4990980;28;20438;-73
2023/06/27 03:16:58;;;;;;;1999.90;999.90;;;15.70;99.90;;;;;;4990659;28;20438;-73
2023/06/27 03:19:25;;;;;;;1999.90;999.90;;;15.70;99.90;;;;;;4988150;28;20497;-73
2023/06/27 03:21:53;;;;;;;1999.90;999.90;;;15.70;99.90;;;;;;4989923;28;20993;-73
2023/06/27 03:24:19;;;;;;;1999.90;999.90;;;15.80;99.90;;;;;;4990415;28;20442;-73
2023/06/27 03:26:46;;;;;;;1999.90;999.90;;;15.80;99.90;;;;;;4990757;28;20442;-73
2023/06/27 03:29:13;;;;;;;1999.90;999.90;;;15.80;99.90;;;;;;4985360;28;20447;-73
2023/06/27 03:31:39;;;;;;;1999.90;999.90;;;15.60;99.90;;;;;;4988734;28;20445;-73
2023/06/27 03:34:06;;;;;;;1999.90;999.90;;;15.70;99.90;;;;;;4990352;28;20437;-71
2023/06/27 03:36:33;;;;;;;1999.90;999.90;;;15.70;99.90;;;;;;4990478;28;20465;-72
2023/06/27 03:39:02;;;;;;;1999.90;999.90;;;15.60;99.90;;;;;;4989332;28;20438;-73
2023/06/27 03:41:29;;;;;;;1999.90;999.90;;;15.70;99.90;;;;;;4989691;28;20426;-73
2023/06/27 03:43:56;;;;;;;1999.90;999.90;;;15.70;99.90;;;;;;4989341;28;20446;-74
2023/06/27 03:46:24;;;;;;;1999.90;999.90;;;15.50;99.90;;;;;;4989023;28;20438;-73
2023/06/27 03:48:54;;;;;;;1999.90;999.90;;;15.60;99.90;;;;;;4989262;28;20492;-73
2023/06/27 03:51:20;;;;;;;1999.90;999.90;;;15.70;99.90;;;;;;4988774;28;20921;-73
2023/06/27 03:53:47;;;;;;;1999.90;999.90;;;15.90;99.90;;;;;;4990403;28;20438;-73
2023/06/27 03:56:15;;;;;;;1999.90;999.90;;;15.90;99.90;;;;;;4990629;28;20434;-73
2023/06/27 03:58:42;;;;;;;1999.90;999.90;;;15.80;99.90;;;;;;4989977;28;20465;-73
2023/06/27 04:01:10;;;;;;;1999.90;999.90;;;15.60;99.90;;;;;;4990352;28;20837;-75
2023/06/27 04:03:36;;;;;;;1999.90;999.90;;;15.50;99.90;;;;;;4989479;28;21190;-72
2023/06/27 04:06:03;;;;;;;1999.90;999.90;;;15.40;99.90;;;;;;4989449;28;20438;-71
2023/06/27 04:08:30;;;;;;;1999.90;999.90;;;15.40;99.90;;;;;;4990252;28;20491;-72
2023/06/27 04:10:56;;;;;;;1999.90;999.90;;;15.40;99.90;;;;;;4988780;28;20430;-73
2023/06/27 04:13:24;;;;;;;1999.90;999.90;;;15.50;99.90;;;;;;4991533;28;20499;-74
2023/06/27 04:15:51;;;;;;;1999.90;999.90;;;15.60;99.90;;;;;;4991781;28;20433;-74
2023/06/27 04:18:18;;;;;;;1999.90;999.90;;;15.70;99.90;;;;;;4988881;28;20448;-74
2023/06/27 04:20:45;;;;;;;1999.90;999.90;;;15.70;99.90;;;;;;4991697;28;20434;-73
2023/06/27 04:23:12;;;;;;;1999.90;999.90;;;15.80;99.90;;;;;;4990817;28;20442;-74
2023/06/27 04:25:38;;;;;;;1999.90;999.90;;;15.80;99.90;;;;;;4991192;28;20438;-73
2023/06/27 04:28:05;;;;;;;1999.90;999.90;;;15.80;99.90;;;;;;4988242;28;20565;-73
2023/06/27 04:30:33;;;;;;;1999.90;999.90;;;15.90;99.90;;;;;;4990546;28;20442;-73
2023/06/27 04:33:00;;;;;;;1999.90;999.90;;;16.10;99.90;;;;;;4990504;28;20789;-73
2023/06/27 04:35:27;;;;;;;1999.90;999.90;;;16.60;99.90;;;;;;4991725;28;20430;-73
2023/06/27 04:37:54;;;;;;;1999.90;999.90;;;17.40;99.90;;;;;;4991309;28;20441;-73
2023/06/27 04:40:21;;;;;;;1999.90;999.90;;;17.80;99.90;;;;;;4992013;28;20444;-72
2023/06/27 04:42:48;;;;;;;1999.90;999.90;;;18.30;99.90;;;;;;4991513;28;20430;-73
2023/06/27 04:45:15;;;;;;;1999.90;999.90;;;18.50;99.90;;;;;;4992608;28;20493;-73
2023/06/27 04:47:43;;;;;;;1999.90;999.90;;;18.80;99.90;;;;;;4992283;28;20508;-73
2023/06/27 04:50:14;;;;;;;1999.90;999.90;;;19.20;99.90;;;;;;4991948;28;20924;-73
2023/06/27 04:52:41;;;;;;;1999.90;999.90;;;18.90;99.90;;;;;;4991770;28;20529;-73
2023/06/27 04:55:08;;;;;;;1999.90;999.90;;;19.00;99.90;;;;;;4991904;28;20542;-73
2023/06/27 04:57:35;;;;;;;1999.90;999.90;;;18.90;99.90;;;;;;4991122;28;20504;-72
2023/06/27 05:00:02;;;;;;;1999.90;999.90;;;19.20;99.90;;;;;;4992354;28;22489;-72
2023/06/27 05:02:30;;;;;;;1999.90;999.90;;;19.00;99.90;;;;;;4991601;28;20462;-73
2023/06/27 05:04:58;;;;;;;1999.90;999.90;;;19.10;99.90;;;;;;4992979;28;20527;-72
2023/06/27 05:07:25;;;;;;;1999.90;999.90;;;18.80;99.90;;;;;;4991953;28;20430;-69
2023/06/27 05:09:51;;;;;;;1999.90;999.90;;;18.80;99.90;;;;;;4984105;28;20442;-73
2023/06/27 05:12:18;;;;;;;1999.90;999.90;;;19.10;99.90;;;;;;4990669;28;20435;-72
2023/06/27 05:14:45;;;;;;;1999.90;999.90;;;19.40;99.90;;;;;;4992333;28;20833;-73
2023/06/27 05:17:11;;;;;;;1999.90;999.90;;;19.60;99.90;;;;;;4991937;28;20493;-74
2023/06/27 05:19:38;;;;;;;1999.90;999.90;;;19.90;99.90;;;;;;4991701;28;20493;-73
2023/06/27 05:22:06;;;;;;;1999.90;999.90;;;20.20;99.90;;;;;;4991339;28;20571;-70
2023/06/27 05:24:33;;;;;;;1999.90;999.90;;;20.40;99.90;;;;;;4989806;28;20465;-73
2023/06/27 05:27:00;;;;;;;1999.90;999.90;;;20.60;99.90;;;;;;4990795;28;20532;-73
2023/06/27 05:29:27;;;;;;;1999.90;999.90;;;20.50;99.90;;;;;;4992050;28;20438;-73
2023/06/27 05:31:53;;;;;;;1999.90;999.90;;;20.70;99.90;;;;;;4991228;28;20468;-70
2023/06/27 05:34:20;;;;;;;1999.90;999.90;;;20.30;99.90;;;;;;4992363;28;20434;-73
2023/06/27 05:36:47;;;;;;;1999.90;999.90;;;20.30;99.90;;;;;;4992336;28;20504;-74
2023/06/27 05:39:15;;;;;;;1999.90;999.90;;;20.40;99.90;;;;;;4991700;28;20501;-72
2023/06/27 05:41:41;;;;;;;1999.90;999.90;;;20.60;99.90;;;;;;4991108;28;20430;-73
2023/06/27 05:44:08;;;;;;;1999.90;999.90;;;20.60;99.90;;;;;;4991933;28;20483;-72
2023/06/27 05:46:38;;;;;;;1999.90;999.90;;;20.80;99.90;;;;;;4991803;28;20442;-73
2023/06/27 05:49:05;;;;;;;1999.90;999.90;;;20.50;99.90;;;;;;4991965;28;20438;-71
2023/06/27 05:51:32;;;;;;;1999.90;999.90;;;20.40;99.90;;;;;;4991090;28;20434;-71
2023/06/27 05:53:59;;;;;;;1999.90;999.90;;;20.40;99.90;;;;;;4990902;28;20921;-74
2023/06/27 05:56:27;;;;;;;1999.90;999.90;;;20.30;99.90;;;;;;5007089;23;20547;-75
2023/06/27 05:58:53;;;;;;;1999.90;999.90;;;19.90;99.90;;;;;;4970042;28;20440;-75
2023/06/27 06:01:20;;;;;;;1999.90;999.90;;;19.90;99.90;;;;;;4969671;28;20421;-73
2023/06/27 06:03:47;;;;;;;1999.90;999.90;;;19.70;99.90;;;;;;4971081;28;20538;-74
2023/06/27 06:06:14;;;;;;;1999.90;999.90;;;19.80;99.90;;;;;;4965682;28;20449;-73
2023/06/27 06:08:40;;;;;;;1999.90;999.90;;;19.80;99.90;;;;;;4946621;29;20516;-73
2023/06/27 06:11:07;;;;;;;1999.90;999.90;;;20.30;99.90;;;;;;4951629;29;20464;-74
2023/06/27 06:13:35;;;;;;;1999.90;999.90;;;20.30;99.90;;;;;;4951676;29;20994;-73
2023/06/27 06:16:01;;;;;;;1999.90;999.90;;;20.30;99.90;;;;;;4951438;28;20848;-76
2023/06/27 06:18:28;;;;;;;1999.90;999.90;;;20.70;99.90;;;;;;4952256;29;20446;-76
2023/06/27 06:20:55;;;;;;;1999.90;999.90;;;20.90;99.90;;;;;;4951387;29;20493;-74
2023/06/27 06:23:21;;;;;;;1999.90;999.90;;;21.00;99.90;;;;;;4951259;29;20438;-75
2023/06/27 06:25:48;;;;;;;1999.90;999.90;;;21.20;99.90;;;;;;4950449;28;20518;-75
2023/06/27 06:28:15;;;;;;;1999.90;999.90;;;21.30;99.90;;;;;;4951896;29;20504;-75
2023/06/27 06:30:43;;;;;;;1999.90;999.90;;;21.40;99.90;;;;;;4948790;28;20440;-76
2023/06/27 06:33:10;;;;;;;1999.90;999.90;;;21.40;99.90;;;;;;4944027;29;20489;-75
2023/06/27 06:35:37;;;;;;;1999.90;999.90;;;21.60;99.90;;;;;;4947643;28;20441;-72
2023/06/27 06:38:03;;;;;;;1999.90;999.90;;;21.20;99.90;;;;;;4951525;28;20453;-73
2023/06/27 06:40:30;;;;;;;1999.90;999.90;;;20.90;99.90;;;;;;4951182;29;20430;-73
2023/06/27 06:42:57;;;;;;;1999.90;999.90;;;20.90;99.90;;;;;;4945866;29;20445;-73
2023/06/27 06:45:24;;;;;;;1999.90;999.90;;;21.00;99.90;;;;;;4950810;29;20525;-76
2023/06/27 06:47:53;;;;;;;1999.90;999.90;;;21.10;99.90;;;;;;4950933;28;20437;-73
2023/06/27 06:50:19;;;;;;;1999.90;999.90;;;21.10;99.90;;;;;;4942989;29;20449;-71
2023/06/27 06:52:46;;;;;;;1999.90;999.90;;;21.10;99.90;;;;;;4946280;29;20471;-75
2023/06/27 06:55:13;;;;;;;1999.90;999.90;;;21.20;99.90;;;;;;4949718;29;20453;-73
2023/06/27 06:57:39;;;;;;;1999.90;999.90;;;21.00;99.90;;;;;;4950932;28;20441;-72
2023/06/27 07:00:07;;;;;;;1999.90;999.90;;;21.10;99.90;;;;;;4950688;29;20441;-72
2023/06/27 07:02:34;;;;;;;1999.90;999.90;;;21.10;99.90;;;;;;4948710;29;20430;-72
2023/06/27 07:05:02;;;;;;;1999.90;999.90;;;21.00;99.90;;;;;;4950520;29;20446;-72
2023/06/27 07:07:29;;;;;;;1999.90;999.90;;;20.80;99.90;;;;;;4949537;28;20504;-75
2023/06/27 07:09:55;;;;;;;1999.90;999.90;;;20.30;99.90;;;;;;4949137;29;20888;-74
2023/06/27 07:12:22;;;;;;;1999.90;999.90;;;19.90;99.90;;;;;;4950537;29;20532;-74
2023/06/27 07:14:49;;;;;;;1999.90;999.90;;;19.60;99.90;;;;;;4950920;29;20973;-75
2023/06/27 07:17:16;;;;;;;1999.90;999.90;;;19.30;99.90;;;;;;4949943;28;20446;-72
2023/06/27 07:19:42;;;;;;;1999.90;999.90;;;19.30;99.90;;;;;;4950166;29;20489;-73
2023/06/27 07:22:10;;;;;;;1999.90;999.90;;;19.80;99.90;;;;;;4949518;29;20940;-75
2023/06/27 07:24:37;;;;;;;1999.90;999.90;;;20.20;99.90;;;;;;4950365;29;20535;-72
2023/06/27 07:27:04;;;;;;;1999.90;999.90;;;20.60;99.90;;;;;;4950540;28;20442;-72
2023/06/27 07:29:31;;;;;;;1999.90;999.90;;;21.00;99.90;;;;;;4949274;29;20449;-72
2023/06/27 07:31:57;;;;;;;1999.90;999.90;;;21.30;99.30;;;;;;4949739;29;20434;-75
2023/06/27 07:34:24;;;;;;;1999.90;999.90;;;21.60;99.40;;;;;;4950590;29;20438;-75
2023/06/27 07:36:51;;;;;;;1999.90;999.90;;;21.90;99.40;;;;;;4949976;28;20441;-74
2023/06/27 07:39:19;;;;;;;1999.90;999.90;;;22.00;99.00;;;;;;4950308;29;20473;-75
2023/06/27 07:41:45;;;;;;;1999.90;999.90;;;22.00;99.10;;;;;;4952780;29;20456;-77
2023/06/27 07:44:12;;;;;;;1999.90;999.90;;;22.10;98.30;;;;;;4952214;29;20429;-73
2023/06/27 07:46:39;;;;;;;1999.90;999.90;;;22.50;97.20;;;;;;4953976;28;20530;-73
2023/06/27 07:49:05;;;;;;;1999.90;999.90;;;22.50;97.10;;;;;;4963301;29;20493;-73
2023/06/27 07:51:32;;;;;;;1999.90;999.90;;;21.90;97.30;;;;;;4962724;29;20441;-73
2023/06/27 07:54:01;;;;;;;1999.90;999.90;;;21.80;97.70;;;;;;4964315;29;20472;-73
2023/06/27 07:56:30;;;;;;;1999.90;999.90;;;21.40;97.90;;;;;;4952574;28;20917;-72
2023/06/27 07:58:57;;;;;;;1999.90;999.90;;;21.10;99.70;;;;;;4952655;29;20426;-73
2023/06/27 08:01:24;;;;;;;1999.90;999.90;;;21.60;99.40;;;;;;4951418;29;20516;-73
2023/06/27 08:03:51;;;;;;;1999.90;999.90;;;21.60;98.70;;;;;;4952183;29;20455;-73
2023/06/27 08:06:17;;;;;;;1999.90;999.90;;;21.50;98.00;;;;;;4951100;28;20445;-73
2023/06/27 08:08:44;;;;;;;1999.90;999.90;;;21.70;98.90;;;;;;4949970;29;20445;-72
2023/06/27 08:11:11;;;;;;;1999.90;999.90;;;21.50;98.60;;;;;;4949360;29;20524;-73
2023/06/27 08:13:41;;;;;;;1999.90;999.90;;;21.70;98.20;;;;;;4950310;29;20441;-73
2023/06/27 08:16:08;;;;;;;1999.90;999.90;;;21.70;97.70;;;;;;4950526;28;20446;-73
2023/06/27 08:18:34;;;;;;;1999.90;999.90;;;21.80;97.90;;;;;;4950102;29;20442;-73
2023/06/27 08:21:01;;;;;;;1999.90;999.90;;;22.10;97.60;;;;;;4943731;29;20476;-73
2023/06/27 08:23:28;;;;;;;1999.90;999.90;;;22.30;96.70;;;;;;4950372;29;20441;-73
2023/06/27 08:25:55;;;;;;;1999.90;999.90;;;22.60;95.60;;;;;;4949551;28;20464;-72
2023/06/27 08:28:21;;;;;;;1999.90;999.90;;;22.70;96.90;;;;;;4950424;29;20920;-73
2023/06/27 08:30:49;;;;;;;1999.90;999.90;;;22.30;96.50;;;;;;4949731;29;20864;-73
2023/06/27 08:33:16;;;;;;;1999.90;999.90;;;22.40;96.60;;;;;;4948802;29;20894;-72
2023/06/27 08:35:43;;;;;;;1999.90;999.90;;;22.50;95.80;;;;;;4949874;29;20446;-73
2023/06/27 08:38:10;;;;;;;1999.90;999.90;;;22.20;96.60;;;;;;4950188;28;20445;-73
2023/06/27 08:40:37;;;;;;;1999.90;999.90;;;22.10;97.40;;;;;;4950815;28;20886;-73
2023/06/27 08:43:06;;;;;;;1999.90;999.90;;;22.10;97.70;;;;;;4951311;29;20424;-73
2023/06/27 08:45:35;;;;;;;1999.90;999.90;;;22.30;98.20;;;;;;4952177;29;20912;-73
2023/06/27 08:48:06;;;;;;;1999.90;999.90;;;22.70;97.00;;;;;;4953380;28;20437;-73
2023/06/27 08:50:35;;;;;;;1999.90;999.90;;;23.10;96.20;;;;;;4952062;29;20487;-75
2023/06/27 08:53:04;;;;;;;1999.90;999.90;;;23.20;95.30;;;;;;4951516;29;20508;-73
2023/06/27 08:55:36;;;;;;;1999.90;999.90;;;23.20;95.70;;;;;;4952840;29;20453;-73
2023/06/27 08:58:06;;;;;;;1999.90;999.90;;;23.50;95.90;;;;;;4952089;28;20975;-73
2023/06/27 09:00:34;;;;;;;1999.90;999.90;;;23.90;95.70;;;;;;4955196;29;20441;-76
2023/06/27 09:03:01;;;;;;;1999.90;999.90;;;24.00;93.80;;;;;;4954959;29;20418;-75
2023/06/27 09:05:32;;;;;;;1999.90;999.90;;;23.90;93.40;;;;;;4955023;29;20832;-72
2023/06/27 09:07:59;;;;;;;1999.90;999.90;;;23.20;94.30;;;;;;4955099;28;20438;-73
2023/06/27 09:10:26;;;;;;;1999.90;999.90;;;22.50;94.30;;;;;;4951019;29;20496;-73
2023/06/27 09:12:54;;;;;;;1999.90;999.90;;;22.40;94.40;;;;;;4953299;29;20434;-73
2023/06/27 09:15:21;;;;;;;1999.90;999.90;;;22.90;94.10;;;;;;4947640;29;20936;-72
2023/06/27 09:17:48;;;;;;;1999.90;999.90;;;23.10;94.90;;;;;;4953876;28;20445;-73
2023/06/27 09:20:18;;;;;;;1999.90;999.90;;;23.20;93.90;;;;;;4951295;29;20849;-75
2023/06/27 09:22:46;;;;;;;1999.90;999.90;;;23.50;93.80;;;;;;4950747;29;20465;-72
2023/06/27 09:25:14;;;;;;;1999.90;999.90;;;23.40;93.50;;;;;;4949493;29;20450;-76
2023/06/27 09:27:41;;;;;;;1999.90;999.90;;;23.70;94.00;;;;;;4952694;28;20451;-73
2023/06/27 09:30:09;;;;;;;1999.90;999.90;;;24.40;93.00;;;;;;4949361;29;20448;-73
2023/06/27 09:32:52;;;;;;;1999.90;999.90;;;24.80;91.80;;;;;;4954313;29;20438;-76
2023/06/27 09:35:20;;;;;;;1999.90;999.90;;;24.50;91.90;;;;;;4955218;29;20436;-73
2023/06/27 09:37:48;;;;;;;1999.90;999.90;;;24.30;91.70;;;;;;4955219;28;20439;-74
2023/06/27 09:40:19;;;;;;;1999.90;999.90;;;24.30;92.20;;;;;;4954655;29;20450;-74
2023/06/27 09:42:51;;;;;;;1999.90;999.90;;;24.10;92.30;;;;;;4952258;29;20438;-74
2023/06/27 09:45:18;;;;;;;1999.90;999.90;;;23.90;92.20;;;;;;4954266;29;20496;-74
2023/06/27 09:47:45;;;;;;;1999.90;999.90;;;24.00;91.00;;;;;;4954258;28;20846;-74
2023/06/27 09:50:12;;;;;;;1999.90;999.90;;;23.70;90.50;;;;;;4953803;29;20449;-74
2023/06/27 09:52:38;;;;;;;1999.90;999.90;;;23.70;91.60;;;;;;4953256;29;20800;-74
2023/06/27 09:55:17;;;;;;;1999.90;999.90;;;23.90;92.10;;;;;;4949830;29;20551;-73
2023/06/27 09:57:44;;;;;;;1999.90;999.90;;;23.80;92.20;;;;;;4952977;28;20520;-72
2023/06/27 10:00:13;;;;;;;1999.90;999.90;;;23.80;93.30;;;;;;4951185;29;20548;-73
2023/06/27 10:02:39;;;;;;;1999.90;999.90;;;23.70;93.30;;;;;;4951613;29;20811;-73
2023/06/27 10:05:06;;;;;;;1999.90;999.90;;;23.60;92.90;;;;;;4949010;29;20437;-73
2023/06/27 10:07:33;;;;;;;1999.90;999.90;;;23.00;93.80;;;;;;4951890;28;20849;-73
2023/06/27 10:10:00;;;;;;;1999.90;999.90;;;22.90;93.90;;;;;;4956372;28;20428;-75
2023/06/27 10:12:29;;;;;;;1999.90;999.90;;;23.20;93.40;;;;;;4954614;29;20852;-73
2023/06/27 10:14:56;;;;;;;1999.90;999.90;;;23.20;91.90;;;;;;4954021;29;20782;-74
2023/06/27 10:17:23;;;;;;;1999.90;999.90;;;22.90;92.70;;;;;;4954434;28;20477;-74
2023/06/27 10:19:50;;;;;;;1999.90;999.90;;;23.10;93.20;;;;;;4950240;29;21188;-73
2023/06/27 10:22:19;;;;;;;1999.90;999.90;;;22.90;94.00;;;;;;4945353;29;20437;-74
2023/06/27 10:24:48;;;;;;;1999.90;999.90;;;22.90;94.40;;;;;;4949505;29;20461;-73
2023/06/27 10:27:20;;;;;;;1999.90;999.90;;;23.00;94.50;;;;;;4951988;28;20504;-73
2023/06/27 10:29:49;;;;;;;1999.90;999.90;;;23.10;94.40;;;;;;4945588;29;20457;-73
2023/06/27 10:32:17;;;;;;;1999.90;999.90;;;23.00;94.30;;;;;;4957286;28;20446;-73
2023/06/27 10:34:44;;;;;;;1999.90;999.90;;;23.30;94.40;;;;;;4950652;29;20469;-73
2023/06/27 10:37:12;;;;;;;1999.90;999.90;;;23.70;93.30;;;;;;4952484;28;20453;-74
2023/06/27 10:39:41;;;;;;;1999.90;999.90;;;23.80;93.30;;;;;;4951514;29;20450;-73
2023/06/27 10:42:26;;;;;;;1999.90;999.90;;;23.70;93.40;;;;;;4950884;29;20433;-74
2023/06/27 10:45:08;;;;;;;1999.90;999.90;;;23.40;93.30;;;;;;4947908;29;20437;-73
2023/06/27 10:47:35;;;;;;;1999.90;999.90;;;23.10;94.60;;;;;;4951443;28;20445;-73
2023/06/27 10:50:08;;;;;;;1999.90;999.90;;;23.30;93.10;;;;;;4950592;29;20450;-75
2023/06/27 10:52:35;;;;;;;1999.90;999.90;;;23.50;93.10;;;;;;4949818;29;20445;-74
2023/06/27 10:55:21;;;;;;;1999.90;999.90;;;23.90;92.80;;;;;;4950248;29;21005;-74
2023/06/27 10:57:50;;;;;;;1999.90;999.90;;;24.10;91.90;;;;;;4951500;28;20454;-74
2023/06/27 11:00:24;;;;;;;1999.90;999.90;;;24.40;91.60;;;;;;4949596;29;20497;-73
2023/06/27 11:02:54;;;;;;;1999.90;999.90;;;24.70;92.00;;;;;;4949324;29;20976;-74
2023/06/27 11:05:36;;;;;;;1999.90;999.90;;;25.00;92.00;;;;;;4951914;29;20960;-74
2023/06/27 11:08:03;;;;;;;1999.90;999.90;;;24.90;91.30;;;;;;4952918;28;20845;-74
2023/06/27 11:10:30;;;;;;;1999.90;999.90;;;24.60;91.10;;;;;;4950288;29;20532;-74
2023/06/27 11:13:15;;;;;;;1999.90;999.90;;;24.90;92.00;;;;;;4951168;28;20496;-73
2023/06/27 11:15:44;;;;;;;1999.90;999.90;;;24.50;90.00;;;;;;4953058;29;20421;-73
2023/06/27 11:18:14;;;;;;;1999.90;999.90;;;24.00;90.50;;;;;;4952903;28;20458;-76
2023/06/27 11:20:41;;;;;;;1999.90;999.90;;;23.90;92.20;;;;;;4952696;29;20909;-75
2023/06/27 11:23:08;;;;;;;1999.90;999.90;;;24.30;92.20;;;;;;4950605;28;20442;-73
2023/06/27 11:25:38;;;;;;;1999.90;999.90;;;24.00;91.20;;;;;;4953698;29;20449;-75
2023/06/27 11:28:05;;;;;;;1999.90;999.90;;;24.10;91.90;;;;;;4947331;28;20430;-75
2023/06/27 11:30:33;;;;;;;1999.90;999.90;;;23.90;91.90;;;;;;4952377;28;20426;-75
2023/06/27 11:33:01;;;;;;;1999.90;999.90;;;23.80;93.00;;;;;;4948708;29;20944;-75
2023/06/27 11:35:29;;;;;;;1999.90;999.90;;;23.60;92.60;;;;;;4948693;28;20437;-75
2023/06/27 11:37:56;;;;;;;1999.90;999.90;;;23.60;93.60;;;;;;4957989;28;20441;-75
2023/06/27 11:40:23;;;;;;;1999.90;999.90;;;24.00;92.70;;;;;;4950954;29;20872;-74
2023/06/27 11:42:50;;;;;;;1999.90;999.90;;;24.30;91.90;;;;;;4948765;29;20437;-74
2023/06/27 11:45:17;;;;;;;1999.90;999.90;;;24.60;92.00;;;;;;4949203;29;20441;-74
2023/06/27 11:47:46;;;;;;;1999.90;999.90;;;24.70;92.00;;;;;;4949406;28;20452;-75
2023/06/27 11:50:15;;;;;;;1999.90;999.90;;;24.80;90.80;;;;;;4950668;29;20520;-73
2023/06/27 11:52:42;;;;;;;1999.90;999.90;;;24.90;91.50;;;;;;4947669;29;20939;-74
2023/06/27 11:55:09;;;;;;;1999.90;999.90;;;25.00;91.70;;;;;;4947561;29;20446;-75
2023/06/27 11:57:44;;;;;;;1999.90;999.90;;;25.20;90.80;;;;;;4947944;28;20488;-74
2023/06/27 12:00:15;;;;;;;1999.90;999.90;;;25.40;91.70;;;;;;4949546;29;20445;-72
2023/06/27 12:02:42;;;;;;;1999.90;999.90;;;25.50;90.20;;;;;;4948930;29;20465;-73